createdAt,value
2019-02-02T00:03:12.515Z,34.8
2019-02-02T00:08:13.983Z,34.8
2019-02-02T00:13:15.822Z,34.7
2019-02-02T00:18:20.966Z,34.7
2019-02-02T00:23:25.115Z,34.7
2019-02-02T00:28:26.574Z,34.7
2019-02-02T00:33:28.200Z,34.6
2019-02-02T00:38:29.639Z,34.6
2019-02-02T00:43:31.059Z,34.6
2019-02-02T00:48:32.541Z,34.6
2019-02-02T00:53:35.094Z,34.5
2019-02-02T00:58:39.945Z,34.5
2019-02-02T01:03:41.396Z,34.4
2019-02-02T01:08:43.889Z,34.4
2019-02-02T01:13:45.537Z,34.4
2019-02-02T01:18:46.963Z,34.4
2019-02-02T01:23:48.451Z,34.3
2019-02-02T01:28:50.161Z,34.3
2019-02-02T01:33:52.245Z,34.2
2019-02-02T01:38:56.712Z,34.2
2019-02-02T01:43:58.152Z,34.2
2019-02-02T01:48:59.583Z,34.2
2019-02-02T01:54:01.276Z,34.1
2019-02-02T01:59:07.452Z,34.1
2019-02-02T02:04:08.934Z,34.1
2019-02-02T02:09:13.054Z,34.1
2019-02-02T02:14:17.504Z,34
2019-02-02T02:19:20.407Z,34
2019-02-02T02:24:22.068Z,33.9
2019-02-02T02:29:32.525Z,33.9
2019-02-02T02:34:36.827Z,33.9
2019-02-02T02:39:41.551Z,33.9
2019-02-02T02:44:43.038Z,33.8
2019-02-02T02:49:44.457Z,33.8
2019-02-02T02:54:45.918Z,33.7
2019-02-02T02:59:47.360Z,33.7
2019-02-02T03:04:48.938Z,33.7
2019-02-02T03:09:51.517Z,33.7
2019-02-02T03:14:53.618Z,33.7
2019-02-02T03:19:58.006Z,33.6
2019-02-02T03:24:59.431Z,33.6
2019-02-02T03:30:00.910Z,33.6
2019-02-02T03:35:02.367Z,33.6
2019-02-02T03:40:03.861Z,33.5
2019-02-02T03:45:05.411Z,33.5
2019-02-02T03:50:12.834Z,33.4
2019-02-02T03:55:14.256Z,33.4
2019-02-02T04:00:15.688Z,33.4
2019-02-02T04:05:17.312Z,33.4
2019-02-02T04:10:19.005Z,33.4
2019-02-02T04:20:26.370Z,33.3
2019-02-02T04:25:28.760Z,33.2
2019-02-02T04:30:30.209Z,33.2
2019-02-02T04:35:31.594Z,33.2
2019-02-02T04:40:33.033Z,33.2
2019-02-02T04:45:37.265Z,33.2
2019-02-02T04:50:38.603Z,33.1
2019-02-02T04:55:40.032Z,33.1
2019-02-02T05:00:41.438Z,33.1
2019-02-02T05:05:43.322Z,33.1
2019-02-02T05:10:46.323Z,33.1
2019-02-02T05:15:48.272Z,33
2019-02-02T05:25:56.202Z,32.9
2019-02-02T05:30:58.376Z,32.9
2019-02-02T05:35:59.713Z,32.9
2019-02-02T05:41:01.101Z,32.9
2019-02-02T05:46:06.414Z,32.9
2019-02-02T05:51:13.512Z,32.8
2019-02-02T05:56:15.500Z,32.8
2019-02-02T06:01:16.919Z,32.7
2019-02-02T06:06:18.395Z,32.7
2019-02-02T06:11:19.848Z,32.7
2019-02-02T06:16:21.550Z,32.7
2019-02-02T06:21:23.086Z,32.7
2019-02-02T06:26:24.507Z,32.6
2019-02-02T06:36:41.393Z,32.6
2019-02-02T06:41:42.830Z,32.6
2019-02-02T06:46:47.655Z,32.6
2019-02-02T06:51:50.106Z,32.5
2019-02-02T06:56:54.481Z,32.5
2019-02-02T07:01:56.911Z,32.5
2019-02-02T07:07:02.050Z,32.5
2019-02-02T07:12:06.616Z,32.4
2019-02-02T07:17:08.037Z,32.4
2019-02-02T07:22:09.379Z,32.4
2019-02-02T07:27:10.951Z,32.4
2019-02-02T07:32:13.417Z,32.4
2019-02-02T07:37:16.022Z,32.3
2019-02-02T07:42:17.389Z,32.3
2019-02-02T07:47:18.771Z,32.2
2019-02-02T07:52:20.233Z,32.2
2019-02-02T07:57:30.409Z,32.2
2019-02-02T08:02:31.936Z,32.2
2019-02-02T08:07:33.315Z,32.2
2019-02-02T08:12:34.775Z,32.2
2019-02-02T08:17:36.166Z,32.2
2019-02-02T08:22:37.594Z,32.1
2019-02-02T08:27:41.834Z,32.1
2019-02-02T08:32:44.200Z,32.1
2019-02-02T08:37:45.604Z,32.1
2019-02-02T08:42:48.193Z,32.1
2019-02-02T08:47:56.383Z,32
2019-02-02T08:53:01.199Z,32
2019-02-02T08:58:02.643Z,32
2019-02-02T09:03:04.090Z,31.9
2019-02-02T09:08:06.474Z,31.9
2019-02-02T09:13:21.805Z,31.9
2019-02-02T09:18:26.127Z,31.9
2019-02-02T09:23:37.478Z,31.9
2019-02-02T09:28:41.879Z,31.8
2019-02-02T09:33:46.153Z,31.8
2019-02-02T09:38:50.562Z,31.8
2019-02-02T09:44:02.660Z,31.8
2019-02-02T09:49:06.909Z,31.8
2019-02-02T09:54:09.140Z,31.7
2019-02-02T09:59:11.642Z,31.7
2019-02-02T10:04:15.378Z,31.7
2019-02-02T10:09:17.547Z,31.7
2019-02-02T10:14:24.573Z,31.6
2019-02-02T10:19:26.078Z,31.6
2019-02-02T10:24:28.587Z,31.6
2019-02-02T10:29:34.283Z,31.6
2019-02-02T10:34:35.805Z,31.6
2019-02-02T10:39:38.872Z,31.6
2019-02-02T10:44:40.166Z,31.5
2019-02-02T10:49:43.784Z,31.5
2019-02-02T10:54:49.953Z,31.5
2019-02-02T10:59:51.621Z,31.4
2019-02-02T11:04:55.966Z,31.4
2019-02-02T11:10:00.397Z,31.4
2019-02-02T11:15:04.095Z,31.4
2019-02-02T11:20:07.868Z,31.4
2019-02-02T11:25:09.790Z,31.4
2019-02-02T11:30:14.010Z,31.4
2019-02-02T11:35:16.475Z,31.4
2019-02-02T11:40:20.167Z,31.3
2019-02-02T11:45:21.878Z,31.3
2019-02-02T11:50:23.310Z,31.2
2019-02-02T11:55:24.592Z,31.2
2019-02-02T12:00:26.251Z,31.2
2019-02-02T12:05:27.582Z,31.2
2019-02-02T12:10:31.788Z,31.2
2019-02-02T12:15:33.131Z,31.2
2019-02-02T12:20:35.370Z,31.2
2019-02-02T12:25:38.375Z,31.1
2019-02-02T12:30:42.698Z,31.1
2019-02-02T12:35:45.945Z,31.1
2019-02-02T12:40:49.987Z,31.1
2019-02-02T12:45:51.265Z,31.1
2019-02-02T12:50:53.510Z,31.1
2019-02-02T12:55:54.832Z,31.1
2019-02-02T13:00:59.573Z,31.1
2019-02-02T13:06:03.545Z,31
2019-02-02T13:11:04.866Z,31
2019-02-02T13:16:06.138Z,31
2019-02-02T13:21:08.441Z,30.9
2019-02-02T13:26:10.446Z,30.9
2019-02-02T13:31:11.917Z,30.9
2019-02-02T13:36:15.955Z,30.9
2019-02-02T13:41:17.339Z,30.9
2019-02-02T13:46:18.756Z,30.9
2019-02-02T13:51:21.871Z,30.9
2019-02-02T13:56:23.837Z,30.9
2019-02-02T14:01:28.134Z,30.8
2019-02-02T14:06:32.515Z,30.8
2019-02-02T14:11:36.853Z,30.8
2019-02-02T14:16:38.201Z,30.8
2019-02-02T14:21:39.571Z,30.8
2019-02-02T14:26:40.929Z,30.7
2019-02-02T14:31:51.761Z,30.7
2019-02-02T14:36:53.072Z,30.2
2019-02-02T14:41:54.453Z,30.2
2019-02-02T14:46:56.083Z,30.1
2019-02-02T14:51:58.102Z,30.1
2019-02-02T14:57:08.534Z,29.9
2019-02-02T15:02:10.121Z,29.9
2019-02-02T15:07:14.347Z,29.9
2019-02-02T15:12:15.771Z,29.9
2019-02-02T15:17:17.229Z,29.9
2019-02-02T15:22:19.233Z,29.9
2019-02-02T15:27:23.469Z,29.9
2019-02-02T15:32:24.752Z,29.8
2019-02-02T15:37:32.256Z,29.8
2019-02-02T15:42:36.262Z,29.8
2019-02-02T15:47:37.512Z,29.8
2019-02-02T15:52:39.877Z,29.8
2019-02-02T15:57:41.166Z,29.8
2019-02-02T16:02:42.622Z,29.8
2019-02-02T16:07:44.109Z,29.8
2019-02-02T16:12:46.409Z,29.8
2019-02-02T16:17:52.592Z,29.8
2019-02-02T16:22:55.543Z,29.7
2019-02-02T16:27:58.043Z,29.7
2019-02-02T16:32:59.644Z,29.7
2019-02-02T16:38:22.890Z,29.7
2019-02-02T16:43:28.328Z,29.6
2019-02-02T16:48:29.853Z,29.6
2019-02-02T16:53:31.184Z,29.6
2019-02-02T16:58:32.628Z,29.6
2019-02-02T17:03:34.005Z,29.6
2019-02-02T17:08:56.752Z,29.6
2019-02-02T17:14:00.965Z,29.6
2019-02-02T17:19:03.289Z,29.6
2019-02-02T17:24:36.825Z,29.6
2019-02-02T17:29:38.113Z,29.6
2019-02-02T17:34:39.392Z,29.5
2019-02-02T17:39:44.610Z,29.5
2019-02-02T17:44:49.980Z,29.5
2019-02-02T17:49:55.027Z,29.5
2019-02-02T17:54:56.337Z,29.5
2019-02-02T18:00:00.661Z,29.5
2019-02-02T18:05:02.045Z,29.4
2019-02-02T18:10:04.183Z,29.8
2019-02-02T18:15:06.611Z,33.2
2019-02-02T18:20:17.303Z,35.6
2019-02-02T18:25:18.917Z,38.2
2019-02-02T18:30:20.545Z,40.8
2019-02-02T18:35:23.229Z,42.7
2019-02-02T18:40:24.915Z,44.4
2019-02-02T18:45:30.733Z,45.9
2019-02-02T18:50:38.590Z,47.1
2019-02-02T18:55:41.221Z,48.3
2019-02-02T19:00:45.923Z,49.2
2019-02-02T19:05:47.785Z,50.1
2019-02-02T19:15:56.112Z,51.4
2019-02-02T19:20:59.072Z,52.1
2019-02-02T19:26:05.997Z,52.6
2019-02-02T19:31:07.958Z,53
2019-02-02T19:36:11.004Z,53.3
2019-02-02T19:41:38.728Z,53.5
2019-02-02T19:46:40.727Z,53.6
2019-02-02T19:51:42.747Z,53.7
2019-02-02T19:56:45.653Z,53.7
2019-02-02T20:01:47.723Z,53.7
2019-02-02T20:06:52.722Z,53.9
2019-02-02T20:11:54.694Z,53.9
2019-02-02T20:16:57.714Z,54.2
2019-02-02T20:22:18.713Z,54.6
2019-02-02T20:27:20.819Z,54.9
2019-02-02T20:32:22.888Z,55.2
2019-02-02T20:37:24.918Z,55.2
2019-02-02T20:42:27.962Z,55.1
2019-02-02T20:47:29.962Z,55.1
2019-02-02T20:52:32.014Z,55
2019-02-02T20:57:35.100Z,55
2019-02-02T21:02:40.313Z,54.9
2019-02-02T21:07:42.373Z,54.9
2019-02-02T21:12:44.424Z,54.8
2019-02-02T21:17:46.485Z,54.7
2019-02-02T21:22:48.720Z,54.7
2019-02-02T21:28:11.965Z,54.6
2019-02-02T21:33:14.002Z,54.6
2019-02-02T21:38:16.687Z,54.5
2019-02-02T21:43:23.296Z,54.4
2019-02-02T21:48:28.001Z,54.4
2019-02-02T21:53:30.219Z,54.3
2019-02-02T21:58:32.270Z,54.2
2019-02-02T22:03:34.328Z,54.2
2019-02-02T22:08:39.422Z,54.1
2019-02-02T22:13:46.256Z,54.1
2019-02-02T22:18:49.326Z,54
2019-02-02T22:24:13.228Z,53.9
2019-02-02T22:29:15.330Z,53.8
2019-02-02T22:34:17.433Z,53.7
2019-02-02T22:39:23.368Z,53.7
2019-02-02T22:44:25.511Z,53.6
2019-02-02T22:49:30.537Z,53.6
2019-02-02T22:54:36.887Z,53.5
2019-02-02T22:59:47.834Z,53.4
2019-02-02T23:04:51.009Z,53.3
2019-02-02T23:09:56.281Z,53.3
2019-02-02T23:15:07.336Z,53.2
2019-02-02T23:20:09.399Z,53.1
2019-02-02T23:25:14.341Z,53.1
2019-02-02T23:30:17.360Z,52.9
2019-02-02T23:35:19.411Z,52.9
2019-02-02T23:40:23.782Z,52.8
2019-02-02T23:45:29.862Z,52.7
2019-02-02T23:50:34.592Z,52.6
2019-02-02T23:55:39.687Z,52.6
